Time;durP1;ratioP1;P1;durP2;ratioP2;P2;SDS_P1;SDS_P2;PMS_P1;PMS_P2;Temp;Humidity;BMP_temperature;BMP_pressure;BME280_temperature;BME280_humidity;BME280_pressure;Samples;Min_cycle;Max_cycle;Signal;HPM_P1;HPM_P2
2021/12/25 00:00:44;;;;;;;21.27;12.20;;;9.70;99.90;;;;;;5036108;28;20602;-89
2021/12/25 00:03:10;;;;;;;18.00;10.87;;;9.70;99.90;;;;;;5020909;28;20185;-91
2021/12/25 00:05:35;;;;;;;16.30;9.73;;;9.70;99.90;;;;;;5041572;28;20763;-88
2021/12/25 00:08:01;;;;;;;14.27;10.03;;;9.60;99.90;;;;;;5018094;28;20215;-91
2021/12/25 00:10:30;;;;;;;15.37;10.30;;;9.60;99.90;;;;;;5017896;28;20682;-92
2021/12/25 00:12:56;;;;;;;11.43;9.45;;;9.60;99.90;;;;;;5018088;28;20218;-88
2021/12/25 00:15:22;;;;;;;13.55;8.13;;;9.50;99.90;;;;;;5035485;28;20249;-92
2021/12/25 00:17:48;;;;;;;11.93;8.23;;;9.50;99.90;;;;;;5017849;28;20636;-92
2021/12/25 00:20:14;;;;;;;14.90;9.20;;;9.50;99.90;;;;;;5017802;28;21035;-91
2021/12/25 00:22:39;;;;;;;11.17;9.20;;;9.50;99.90;;;;;;5017764;28;20416;-91
2021/12/25 00:25:06;;;;;;;13.90;8.77;;;9.50;99.90;;;;;;5035392;28;20206;-92
2021/12/25 00:27:50;;;;;;;11.18;9.07;;;9.40;99.90;;;;;;5035118;28;20179;-92
2021/12/25 00:30:39;;;;;;;10.52;8.95;;;9.40;99.90;;;;;;5017484;28;20238;-92
2021/12/25 00:33:19;;;;;;;13.32;10.07;;;9.30;99.90;;;;;;5017836;28;20178;-89
2021/12/25 00:35:46;;;;;;;10.75;9.07;;;9.30;99.90;;;;;;5017883;28;20738;-91
2021/12/25 00:38:11;;;;;;;14.40;9.50;;;9.30;99.90;;;;;;5017663;28;20221;-89
2021/12/25 00:40:37;;;;;;;14.80;10.53;;;9.20;99.90;;;;;;5035146;28;20683;-89
2021/12/25 00:43:03;;;;;;;15.97;11.83;;;9.20;99.90;;;;;;5017497;28;20659;-88
2021/12/25 00:45:29;;;;;;;17.07;11.63;;;9.10;99.90;;;;;;5017338;28;20237;-93
2021/12/25 00:47:54;;;;;;;15.77;11.30;;;9.10;99.90;;;;;;5017229;28;20412;-90
2021/12/25 00:50:20;;;;;;;16.50;12.60;;;9.00;99.90;;;;;;5034877;28;20209;-89
2021/12/25 00:52:46;;;;;;;17.70;11.03;;;8.90;99.90;;;;;;5034577;28;20237;-88
2021/12/25 00:55:11;;;;;;;15.77;11.43;;;8.90;99.90;;;;;;5017308;28;20234;-89
2021/12/25 00:57:38;;;;;;;23.00;16.27;;;8.80;99.90;;;;;;5017293;28;20234;-90
2021/12/25 01:00:10;;;;;;;17.02;13.05;;;8.70;99.90;;;;;;5018880;28;20414;-88
2021/12/25 01:02:37;;;;;;;20.15;13.35;;;8.60;99.90;;;;;;5034867;28;20209;-91
2021/12/25 01:05:04;;;;;;;18.48;13.25;;;8.50;99.90;;;;;;5019698;28;20206;-92
2021/12/25 01:07:30;;;;;;;17.77;11.55;;;8.50;99.90;;;;;;5043137;28;20640;-92
2021/12/25 01:09:55;;;;;;;26.90;17.90;;;8.40;99.90;;;;;;5017224;28;20202;-92
2021/12/25 01:12:22;;;;;;;56.30;31.47;;;8.30;99.90;;;;;;5017048;28;20178;-87
2021/12/25 01:14:54;;;;;;;60.50;35.78;;;8.20;99.90;;;;;;5016720;28;20703;-92
2021/12/25 01:17:56;;;;;;;53.38;33.13;;;8.20;99.90;;;;;;5017215;28;20171;-88
2021/12/25 01:34:25;;;;;;;21.30;14.80;;;7.80;99.90;;;;;;5001207;28;20272;-89
2021/12/25 01:36:57;;;;;;;55.03;25.42;;;7.80;99.90;;;;;;5034376;28;20248;-88
2021/12/25 01:39:43;;;;;;;19.23;15.10;;;7.80;99.90;;;;;;5017249;28;20194;-92
2021/12/25 01:48:12;;;;;;;22.10;14.57;;;7.80;99.90;;;;;;5039249;28;20630;-92
2021/12/25 01:50:33;;;;;;;13.90;10.95;;;7.80;99.90;;;;;;5041495;28;20264;-88
2021/12/25 01:52:58;;;;;;;14.05;10.27;;;7.90;99.90;;;;;;5034423;28;20225;-89
2021/12/25 01:55:29;;;;;;;14.20;9.43;;;7.80;99.90;;;;;;5025202;28;20610;-90
2021/12/25 01:57:57;;;;;;;14.65;12.52;;;7.90;99.90;;;;;;5020402;28;20210;-88
2021/12/25 02:00:24;;;;;;;14.00;10.52;;;7.90;99.90;;;;;;5020271;28;20344;-91
2021/12/25 02:02:51;;;;;;;12.98;11.25;;;7.90;99.90;;;;;;5038057;28;20201;-92
2021/12/25 02:05:18;;;;;;;15.75;10.43;;;7.90;99.90;;;;;;5020537;28;20206;-92
2021/12/25 02:07:44;;;;;;;12.45;11.02;;;7.80;99.90;;;;;;5020162;28;20190;-92
2021/12/25 02:10:11;;;;;;;17.77;11.73;;;7.90;99.90;;;;;;5037534;28;20213;-91
2021/12/25 02:12:37;;;;;;;19.52;11.95;;;7.90;99.90;;;;;;5037882;28;20370;-91
2021/12/25 02:15:13;;;;;;;18.35;11.55;;;8.00;99.90;;;;;;5020031;28;20225;-88
2021/12/25 02:20:18;;;;;;;20.15;12.68;;;8.00;99.90;;;;;;5038040;28;20256;-91
2021/12/25 02:22:46;;;;;;;50.03;28.65;;;8.00;99.90;;;;;;5020091;28;20174;-92
2021/12/25 02:25:12;;;;;;;82.38;42.22;;;8.10;99.90;;;;;;5019953;28;20210;-92
2021/12/25 02:27:38;;;;;;;52.90;29.58;;;8.10;99.90;;;;;;5037595;28;20622;-89
2021/12/25 02:30:06;;;;;;;72.07;37.22;;;8.10;99.90;;;;;;5019769;28;20222;-91
2021/12/25 02:32:32;;;;;;;82.22;42.50;;;8.10;99.90;;;;;;5019673;28;20170;-88
2021/12/25 02:34:57;;;;;;;45.83;26.23;;;8.10;99.90;;;;;;5019903;28;20273;-92
2021/12/25 02:37:23;;;;;;;31.20;18.87;;;8.10;99.90;;;;;;5019930;28;20390;-90
2021/12/25 02:39:50;;;;;;;25.10;16.63;;;8.10;99.90;;;;;;5019486;28;20432;-91
2021/12/25 02:42:17;;;;;;;50.28;24.35;;;8.10;99.90;;;;;;5037465;28;20408;-91
2021/12/25 02:44:42;;;;;;;32.00;18.65;;;8.10;99.90;;;;;;5019975;28;20550;-91
2021/12/25 02:47:18;;;;;;;24.67;14.40;;;8.10;99.90;;;;;;5037424;28;20178;-88
2021/12/25 02:49:52;;;;;;;37.85;20.45;;;8.10;99.90;;;;;;5019468;28;20205;-92
2021/12/25 02:52:18;;;;;;;50.13;26.05;;;8.10;99.90;;;;;;5004599;28;20234;-92
2021/12/25 02:54:45;;;;;;;63.08;31.55;;;8.10;99.90;;;;;;4999485;28;20226;-89
2021/12/25 02:57:12;;;;;;;29.35;19.85;;;8.10;99.90;;;;;;5017480;28;20222;-89
2021/12/25 02:59:38;;;;;;;21.70;13.48;;;8.10;99.90;;;;;;4998509;28;20230;-88
2021/12/25 03:02:16;;;;;;;17.65;11.75;;;8.10;99.90;;;;;;5001352;28;20277;-91
2021/12/25 03:04:48;;;;;;;14.77;10.60;;;8.10;99.90;;;;;;5003174;28;20310;-92
2021/12/25 03:07:14;;;;;;;16.35;9.00;;;8.20;99.90;;;;;;5018538;28;20179;-91
2021/12/25 03:09:41;;;;;;;10.23;7.77;;;8.20;99.90;;;;;;5020757;28;20237;-89
2021/12/25 03:12:09;;;;;;;10.45;8.25;;;8.20;99.90;;;;;;4999312;28;20395;-88
2021/12/25 03:15:01;;;;;;;11.65;8.13;;;8.20;99.90;;;;;;5025345;28;20206;-90
2021/12/25 03:17:26;;;;;;;9.80;7.63;;;8.20;99.90;;;;;;5016886;28;20187;-91
2021/12/25 03:19:54;;;;;;;9.77;8.50;;;8.20;99.90;;;;;;4999941;28;20206;-89
2021/12/25 03:22:20;;;;;;;86.18;41.17;;;8.20;99.90;;;;;;4999499;28;20405;-92
2021/12/25 03:24:46;;;;;;;215.07;96.87;;;8.30;99.90;;;;;;4999292;28;20569;-89
2021/12/25 03:27:12;;;;;;;97.07;45.60;;;8.30;99.90;;;;;;4999556;28;20424;-89
2021/12/25 03:29:40;;;;;;;30.07;18.37;;;8.30;99.90;;;;;;4999236;28;20183;-92
2021/12/25 03:32:07;;;;;;;17.38;11.77;;;8.20;99.90;;;;;;5001906;28;20186;-89
2021/12/25 03:34:32;;;;;;;14.25;10.25;;;8.20;99.90;;;;;;4999695;28;20569;-92
2021/12/25 03:36:58;;;;;;;9.77;8.20;;;8.20;99.90;;;;;;5017270;28;20183;-89
2021/12/25 03:39:24;;;;;;;11.80;9.10;;;8.20;99.90;;;;;;4999294;28;20451;-92
2021/12/25 03:41:56;;;;;;;9.90;8.27;;;8.20;99.90;;;;;;4999400;28;20407;-88
2021/12/25 03:44:22;;;;;;;10.07;7.20;;;8.20;99.90;;;;;;4999305;28;20194;-92
2021/12/25 03:46:48;;;;;;;8.55;7.05;;;8.20;99.90;;;;;;5017062;28;20203;-92
2021/12/25 03:49:26;;;;;;;9.57;7.80;;;8.20;99.90;;;;;;4999245;28;20195;-92
2021/12/25 03:57:38;;;;;;;9.23;7.28;;;8.20;99.90;;;;;;5014139;28;20190;-92
2021/12/25 04:00:07;;;;;;;10.32;8.38;;;8.20;99.90;;;;;;5024073;28;20217;-92
2021/12/25 04:02:49;;;;;;;37.38;21.67;;;8.20;99.90;;;;;;5026361;28;20182;-91
2021/12/25 04:05:17;;;;;;;17.00;11.00;;;8.20;99.90;;;;;;5034127;28;20285;-91
2021/12/25 04:10:09;;;;;;;33.77;18.97;;;8.30;99.90;;;;;;5035655;28;20202;-89
2021/12/25 04:12:35;;;;;;;57.83;33.70;;;8.20;99.90;;;;;;5018175;28;20174;-89
2021/12/25 04:15:01;;;;;;;69.90;36.17;;;8.20;99.90;;;;;;5017925;28;20895;-89
2021/12/25 04:17:27;;;;;;;48.97;26.40;;;8.20;99.90;;;;;;5017836;28;20197;-92
2021/12/25 04:19:52;;;;;;;24.30;15.43;;;8.20;99.90;;;;;;5017909;28;20194;-89
2021/12/25 04:22:26;;;;;;;14.10;9.00;;;8.30;99.90;;;;;;5017713;28;20471;-91
2021/12/25 04:24:52;;;;;;;28.98;19.80;;;8.30;99.90;;;;;;5035572;28;20190;-89
2021/12/25 04:27:18;;;;;;;27.40;17.92;;;8.30;99.90;;;;;;5018025;28;20175;-89
2021/12/25 04:29:58;;;;;;;22.27;16.40;;;8.30;99.90;;;;;;5017599;28;20275;-91
2021/12/25 05:02:19;;;;;;;19.58;13.10;;;8.30;99.90;;;;;;5038623;28;20190;-91
2021/12/25 05:04:50;;;;;;;20.13;13.80;;;8.30;99.90;;;;;;5023420;28;20738;-88
2021/12/25 05:07:16;;;;;;;18.60;13.73;;;8.20;99.90;;;;;;5046498;28;20163;-89
2021/12/25 05:09:42;;;;;;;25.07;17.17;;;8.20;99.90;;;;;;5044927;28;20553;-88
2021/12/25 05:12:08;;;;;;;21.27;13.17;;;8.20;99.90;;;;;;5017330;28;20221;-91
2021/12/25 05:14:34;;;;;;;18.55;14.10;;;8.10;99.90;;;;;;5034387;28;20211;-89
2021/12/25 05:17:00;;;;;;;15.70;11.23;;;8.20;99.90;;;;;;5035146;28;20661;-89
2021/12/25 05:19:25;;;;;;;16.20;12.07;;;8.10;99.90;;;;;;5016915;28;20201;-88
2021/12/25 05:21:52;;;;;;;15.87;10.70;;;8.10;99.90;;;;;;5016526;28;20643;-92
2021/12/25 05:24:18;;;;;;;13.85;10.15;;;8.10;99.90;;;;;;5017010;28;20670;-89
2021/12/25 05:26:43;;;;;;;13.70;10.47;;;8.00;99.90;;;;;;5016946;28;20203;-88
2021/12/25 05:29:09;;;;;;;12.07;9.13;;;8.00;99.90;;;;;;5034356;28;20209;-88
2021/12/25 05:31:37;;;;;;;15.33;12.10;;;8.00;99.90;;;;;;5016982;28;20671;-89
2021/12/25 05:34:03;;;;;;;13.13;10.35;;;8.00;99.90;;;;;;5016717;28;20343;-91
2021/12/25 05:36:29;;;;;;;14.45;10.25;;;8.00;99.90;;;;;;5017069;28;20203;-92
2021/12/25 05:38:59;;;;;;;19.45;12.20;;;8.00;99.90;;;;;;5034958;28;20166;-91
2021/12/25 05:41:30;;;;;;;18.00;11.60;;;8.00;99.90;;;;;;5020275;28;20578;-88
2021/12/25 05:43:56;;;;;;;14.30;11.60;;;8.00;99.90;;;;;;5018162;28;20171;-89
2021/12/25 05:46:22;;;;;;;13.75;11.55;;;8.00;99.90;;;;;;5018388;28;20202;-89
2021/12/25 05:48:50;;;;;;;16.07;12.07;;;8.00;99.90;;;;;;5024830;28;20217;-88
2021/12/25 05:51:17;;;;;;;15.75;11.93;;;8.00;99.90;;;;;;5034428;28;20238;-88
2021/12/25 05:53:42;;;;;;;16.58;12.35;;;8.00;99.90;;;;;;5016711;28;20218;-89
2021/12/25 05:56:09;;;;;;;18.07;13.40;;;8.00;99.90;;;;;;5016359;28;20232;-92
2021/12/25 05:58:35;;;;;;;15.18;11.57;;;8.00;99.90;;;;;;5016799;28;20220;-91
2021/12/25 06:01:02;;;;;;;15.43;11.75;;;8.00;99.90;;;;;;5016413;28;20217;-90
2021/12/25 06:03:27;;;;;;;19.02;12.65;;;8.00;99.90;;;;;;5016795;28;20175;-92
2021/12/25 06:05:53;;;;;;;15.23;11.30;;;8.10;99.90;;;;;;5016735;28;20213;-92
2021/12/25 06:08:19;;;;;;;16.53;10.83;;;8.10;99.90;;;;;;5034082;28;20174;-88
2021/12/25 06:10:46;;;;;;;17.17;12.53;;;8.10;99.90;;;;;;5034080;28;20244;-90
2021/12/25 06:13:17;;;;;;;13.85;11.85;;;8.10;99.90;;;;;;5016353;28;20690;-91
2021/12/25 06:15:42;;;;;;;15.70;11.63;;;8.10;99.90;;;;;;5016450;28;20657;-89
2021/12/25 06:18:10;;;;;;;17.23;12.40;;;8.10;99.90;;;;;;5016613;28;20217;-88
2021/12/25 06:20:36;;;;;;;17.75;11.13;;;8.10;99.90;;;;;;5016357;28;20755;-89
2021/12/25 06:23:02;;;;;;;23.40;13.80;;;8.10;99.90;;;;;;5016564;28;20206;-91
2021/12/25 06:25:28;;;;;;;21.33;14.10;;;8.10;99.90;;;;;;5016476;28;20202;-86
2021/12/25 06:27:53;;;;;;;20.10;13.03;;;8.00;99.90;;;;;;5016566;28;20473;-89
2021/12/25 06:30:19;;;;;;;33.72;19.30;;;8.00;99.90;;;;;;5016687;28;20209;-92
2021/12/25 06:32:45;;;;;;;30.90;18.00;;;8.00;99.90;;;;;;5016694;28;20205;-92
2021/12/25 06:35:12;;;;;;;34.13;16.80;;;8.00;99.90;;;;;;5019917;28;21038;-89
2021/12/25 06:37:40;;;;;;;27.15;16.38;;;8.00;99.90;;;;;;5020657;28;20171;-92
2021/12/25 06:40:07;;;;;;;25.20;15.13;;;8.00;99.90;;;;;;5024235;28;20268;-89
2021/12/25 06:42:33;;;;;;;28.90;15.75;;;8.00;99.90;;;;;;5020246;28;20179;-88
2021/12/25 06:44:59;;;;;;;29.07;16.00;;;8.00;99.90;;;;;;5051232;28;20562;-91
2021/12/25 06:47:24;;;;;;;34.93;16.33;;;8.10;99.90;;;;;;5037866;28;20727;-91
2021/12/25 06:49:50;;;;;;;16.40;11.00;;;8.00;99.90;;;;;;5038798;28;20449;-89
2021/12/25 06:52:16;;;;;;;26.03;14.00;;;8.10;99.90;;;;;;5039414;28;20226;-89
2021/12/25 06:54:42;;;;;;;17.70;11.53;;;8.10;99.90;;;;;;5019433;28;20675;-89
2021/12/25 06:57:07;;;;;;;13.40;10.00;;;8.10;99.90;;;;;;5019665;28;20179;-89
2021/12/25 06:59:33;;;;;;;16.80;10.17;;;8.10;99.90;;;;;;5037142;28;20182;-92
2021/12/25 07:01:59;;;;;;;13.70;8.17;;;8.10;99.90;;;;;;5019410;28;20186;-91
2021/12/25 07:04:24;;;;;;;10.90;7.60;;;8.20;99.90;;;;;;5019693;28;20174;-91
2021/12/25 07:06:50;;;;;;;10.33;8.23;;;8.20;99.90;;;;;;5037647;28;20236;-89
2021/12/25 07:09:16;;;;;;;9.60;7.17;;;8.20;99.90;;;;;;5019544;28;20206;-91
2021/12/25 07:11:43;;;;;;;10.57;8.30;;;8.20;99.90;;;;;;5019339;28;20679;-91
2021/12/25 07:14:10;;;;;;;8.77;7.80;;;8.20;99.90;;;;;;5019103;28;20210;-92
2021/12/25 07:16:36;;;;;;;13.73;10.20;;;8.30;99.90;;;;;;5019228;28;20683;-92
2021/12/25 07:19:02;;;;;;;7.83;7.03;;;8.30;99.90;;;;;;5019259;28;20181;-91
2021/12/25 07:21:29;;;;;;;13.13;8.37;;;8.30;99.90;;;;;;5019421;28;20452;-89
2021/12/25 07:23:54;;;;;;;19.80;13.05;;;8.30;99.90;;;;;;5019193;28;20254;-89
2021/12/25 07:26:21;;;;;;;35.27;17.53;;;8.30;99.90;;;;;;5021566;28;20317;-90
2021/12/25 07:28:48;;;;;;;28.63;18.90;;;8.30;99.90;;;;;;5051314;28;20166;-92
2021/12/25 07:31:15;;;;;;;21.67;17.33;;;8.40;99.90;;;;;;5037275;28;20229;-89
2021/12/25 07:33:42;;;;;;;26.42;17.52;;;8.40;99.90;;;;;;5018884;28;20194;-88
2021/12/25 07:36:12;;;;;;;16.80;12.90;;;8.40;99.90;;;;;;5019073;28;20210;-88
2021/12/25 07:38:37;;;;;;;21.38;14.10;;;8.50;99.90;;;;;;5019212;28;20182;-89
2021/12/25 07:41:03;;;;;;;12.73;9.50;;;8.50;99.90;;;;;;5037377;28;20233;-89
2021/12/25 07:43:29;;;;;;;14.20;9.90;;;8.50;99.90;;;;;;5019677;28;20171;-89
2021/12/25 07:45:55;;;;;;;13.90;9.27;;;8.60;99.90;;;;;;5018005;28;20975;-88
2021/12/25 07:48:24;;;;;;;11.30;9.57;;;8.60;99.90;;;;;;5036380;28;20411;-90
2021/12/25 07:50:50;;;;;;;13.07;11.30;;;8.60;99.90;;;;;;5018324;28;20238;-92
2021/12/25 07:53:16;;;;;;;10.57;9.03;;;8.70;99.90;;;;;;5018613;28;20193;-89
2021/12/25 07:55:43;;;;;;;12.65;11.32;;;8.70;99.90;;;;;;5018322;28;21012;-92
2021/12/25 07:58:09;;;;;;;12.35;10.70;;;8.70;99.90;;;;;;5018583;28;20178;-92
2021/12/25 08:00:35;;;;;;;14.00;11.00;;;8.80;99.90;;;;;;5035898;28;20202;-91
2021/12/25 08:03:01;;;;;;;20.60;11.80;;;8.80;99.90;;;;;;5018137;28;20175;-90
2021/12/25 08:05:27;;;;;;;17.40;13.40;;;8.90;99.90;;;;;;5035749;28;20446;-88
2021/12/25 08:07:53;;;;;;;18.80;12.30;;;9.00;99.90;;;;;;5036205;28;20485;-89
2021/12/25 08:10:20;;;;;;;19.00;12.10;;;9.00;99.90;;;;;;5018006;28;20414;-93
2021/12/25 08:12:58;;;;;;;15.18;11.70;;;9.10;99.90;;;;;;5018111;28;20655;-91
2021/12/25 08:15:26;;;;;;;40.65;28.58;;;9.20;99.90;;;;;;5035579;28;20595;-88
2021/12/25 08:17:54;;;;;;;12.27;9.77;;;9.20;99.90;;;;;;5035553;28;20170;-92
2021/12/25 08:20:20;;;;;;;15.88;12.50;;;9.30;99.90;;;;;;5017828;28;20217;-92
2021/12/25 08:22:46;;;;;;;47.27;35.47;;;9.30;99.90;;;;;;5034204;28;20171;-91
2021/12/25 08:25:14;;;;;;;15.57;12.75;;;9.40;99.90;;;;;;5039767;28;20457;-92
2021/12/25 08:27:41;;;;;;;20.38;18.27;;;9.40;99.90;;;;;;5032093;28;20182;-89
2021/12/25 08:30:13;;;;;;;14.43;11.40;;;9.40;99.90;;;;;;5017503;28;20557;-89
2021/12/25 08:32:40;;;;;;;15.13;11.93;;;9.40;99.90;;;;;;5021486;28;20225;-88
2021/12/25 08:35:08;;;;;;;18.20;12.65;;;9.50;99.90;;;;;;5021310;28;20309;-88
2021/12/25 08:37:33;;;;;;;16.48;10.20;;;9.50;99.90;;;;;;5017670;28;20557;-91
2021/12/25 08:39:59;;;;;;;15.60;10.43;;;9.50;99.90;;;;;;5017799;28;20218;-88
2021/12/25 08:42:25;;;;;;;13.17;10.60;;;9.60;99.90;;;;;;5017684;28;20547;-88
2021/12/25 08:47:27;;;;;;;12.40;10.68;;;9.70;99.90;;;;;;5035278;28;20170;-88
2021/12/25 08:49:54;;;;;;;15.07;11.40;;;9.70;99.90;;;;;;5017631;28;20190;-92
2021/12/25 08:52:22;;;;;;;16.02;10.00;;;9.70;99.90;;;;;;5017641;28;20691;-91
2021/12/25 08:54:48;;;;;;;15.63;11.05;;;9.80;99.90;;;;;;5017589;28;20590;-92
2021/12/25 08:57:16;;;;;;;15.27;11.57;;;9.80;99.90;;;;;;5024002;28;20171;-92
2021/12/25 08:59:42;;;;;;;17.73;12.48;;;9.90;99.90;;;;;;5049607;28;20198;-89
2021/12/25 09:02:11;;;;;;;13.82;10.73;;;9.90;99.90;;;;;;5029983;28;20286;-90
2021/12/25 09:04:39;;;;;;;15.73;12.73;;;10.00;99.90;;;;;;5032320;28;20661;-89
2021/12/25 09:07:06;;;;;;;20.08;12.25;;;10.00;99.90;;;;;;5031404;28;20182;-92
2021/12/25 09:09:32;;;;;;;28.80;20.10;;;10.00;99.90;;;;;;5034970;28;20178;-89
2021/12/25 09:11:58;;;;;;;26.37;18.20;;;10.10;99.90;;;;;;5031930;28;20193;-92
2021/12/25 09:14:25;;;;;;;17.50;12.82;;;10.10;99.90;;;;;;5030226;28;20446;-89
2021/12/25 09:16:51;;;;;;;17.02;12.32;;;10.10;99.90;;;;;;5035029;28;20182;-89
2021/12/25 09:19:17;;;;;;;19.95;15.50;;;10.10;99.90;;;;;;5034624;28;20229;-89
2021/12/25 09:21:43;;;;;;;26.10;19.70;;;10.20;99.90;;;;;;5016711;28;20210;-92
2021/12/25 09:24:09;;;;;;;23.77;19.23;;;10.10;99.90;;;;;;5016860;28;20390;-92
2021/12/25 09:26:35;;;;;;;32.03;23.60;;;10.20;99.90;;;;;;5017211;28;20714;-89
2021/12/25 09:29:01;;;;;;;45.83;33.63;;;10.20;99.90;;;;;;5016903;28;20174;-91
2021/12/25 09:31:27;;;;;;;33.70;23.53;;;10.20;99.90;;;;;;5034861;28;20441;-92
2021/12/25 09:33:56;;;;;;;33.95;24.13;;;10.20;99.90;;;;;;5017075;28;20217;-91
2021/12/25 09:36:22;;;;;;;33.10;23.95;;;10.20;99.90;;;;;;5016928;28;20659;-88
2021/12/25 09:38:49;;;;;;;15.95;14.23;;;10.20;99.90;;;;;;5034570;28;20175;-89
2021/12/25 09:41:16;;;;;;;18.33;13.48;;;10.20;99.90;;;;;;5023344;28;20616;-91
2021/12/25 09:43:44;;;;;;;21.48;17.90;;;10.30;99.90;;;;;;5027665;28;20611;-91
2021/12/25 09:46:10;;;;;;;17.73;15.77;;;10.30;99.90;;;;;;5038440;28;20305;-90
2021/12/25 09:48:36;;;;;;;18.97;17.00;;;10.20;99.90;;;;;;5016475;28;20282;-91
2021/12/25 09:51:02;;;;;;;19.57;13.80;;;10.30;99.90;;;;;;5015409;28;20485;-91
2021/12/25 09:53:28;;;;;;;20.02;15.15;;;10.30;99.90;;;;;;5033939;28;20412;-92
2021/12/25 09:55:55;;;;;;;17.57;13.67;;;10.30;99.90;;;;;;5016877;28;20548;-92
2021/12/25 09:58:22;;;;;;;16.70;14.25;;;10.30;99.90;;;;;;5016651;28;20408;-89
2021/12/25 10:00:51;;;;;;;19.63;15.68;;;10.40;99.90;;;;;;5015792;28;20355;-91
2021/12/25 10:03:19;;;;;;;26.35;18.55;;;10.40;99.90;;;;;;5014809;28;20257;-92
2021/12/25 10:05:47;;;;;;;32.15;21.75;;;10.40;99.90;;;;;;5015064;28;20205;-90
2021/12/25 10:08:20;;;;;;;31.42;20.20;;;10.40;99.90;;;;;;5015489;28;20177;-89
2021/12/25 10:10:54;;;;;;;34.95;26.10;;;10.50;99.90;;;;;;5018515;28;20206;-92
2021/12/25 10:13:42;;;;;;;28.33;18.60;;;10.50;99.90;;;;;;5019973;28;20176;-88
2021/12/25 10:16:30;;;;;;;21.08;17.23;;;10.50;99.90;;;;;;5021183;28;20214;-88
2021/12/25 10:19:20;;;;;;;18.88;13.20;;;10.50;99.90;;;;;;5020236;28;20621;-92
2021/12/25 10:21:47;;;;;;;16.80;14.13;;;10.60;99.90;;;;;;5023155;28;20225;-91
2021/12/25 10:24:18;;;;;;;15.35;11.65;;;10.60;99.90;;;;;;5020400;28;20553;-92
2021/12/25 10:26:48;;;;;;;14.23;11.70;;;10.70;99.90;;;;;;5025312;28;20252;-92
2021/12/25 10:29:27;;;;;;;15.07;10.45;;;10.70;99.90;;;;;;5019926;28;20261;-91
2021/12/25 10:31:58;;;;;;;12.73;10.80;;;10.70;99.90;;;;;;5020245;28;20179;-91
2021/12/25 10:34:27;;;;;;;13.00;8.88;;;10.80;99.90;;;;;;5019695;28;20315;-92
2021/12/25 10:36:54;;;;;;;15.63;11.02;;;10.80;99.90;;;;;;5038120;28;20205;-92
2021/12/25 10:39:26;;;;;;;16.80;11.95;;;10.90;99.90;;;;;;5020436;28;20178;-92
2021/12/25 10:41:56;;;;;;;16.98;13.43;;;10.90;99.90;;;;;;5038173;28;20198;-91
2021/12/25 10:44:28;;;;;;;15.48;10.80;;;10.90;99.90;;;;;;5019707;28;20224;-92
2021/12/25 10:46:57;;;;;;;24.33;14.85;;;10.90;99.90;;;;;;5019623;28;20186;-89
2021/12/25 10:49:44;;;;;;;17.92;11.45;;;11.00;99.90;;;;;;5037270;28;20535;-91
2021/12/25 10:52:16;;;;;;;22.40;17.77;;;11.00;99.90;;;;;;5019409;28;20226;-91
2021/12/25 10:54:54;;;;;;;89.30;54.17;;;11.00;99.90;;;;;;5021887;28;20668;-91
2021/12/25 10:57:40;;;;;;;42.30;28.98;;;11.00;99.90;;;;;;5019342;28;20521;-92
2021/12/25 11:00:10;;;;;;;48.78;36.05;;;11.00;99.90;;;;;;5019095;28;20679;-89
2021/12/25 11:02:42;;;;;;;25.02;20.98;;;11.00;99.90;;;;;;5019355;28;20185;-89
2021/12/25 11:05:15;;;;;;;20.08;17.30;;;11.10;99.90;;;;;;5019087;28;20237;-89
2021/12/25 11:07:42;;;;;;;20.92;18.27;;;11.10;99.90;;;;;;5019138;28;20175;-92
2021/12/25 11:10:17;;;;;;;13.68;10.88;;;11.20;99.90;;;;;;5028448;28;20214;-90
2021/12/25 11:12:43;;;;;;;19.50;17.50;;;11.20;99.90;;;;;;5049832;28;20170;-92
2021/12/25 11:15:16;;;;;;;20.30;17.83;;;11.20;99.90;;;;;;5031115;28;20217;-88
2021/12/25 11:17:43;;;;;;;19.42;17.40;;;11.20;99.90;;;;;;5051176;28;20400;-92
2021/12/25 11:20:18;;;;;;;18.67;15.95;;;11.20;99.90;;;;;;5035691;28;20198;-91
2021/12/25 11:22:55;;;;;;;15.63;10.95;;;11.10;99.90;;;;;;5040473;28;20177;-88
2021/12/25 11:25:27;;;;;;;31.42;24.05;;;11.20;99.90;;;;;;5040298;28;20229;-88
2021/12/25 11:27:55;;;;;;;22.27;15.35;;;11.20;99.90;;;;;;5018875;28;20179;-92
2021/12/25 11:30:23;;;;;;;18.65;14.65;;;11.20;99.90;;;;;;5018683;28;20214;-92
2021/12/25 11:32:50;;;;;;;21.90;17.83;;;11.20;99.90;;;;;;5018983;28;20178;-88
2021/12/25 11:35:18;;;;;;;22.85;18.63;;;11.20;99.90;;;;;;5018513;28;20237;-88
2021/12/25 11:37:45;;;;;;;19.67;11.93;;;11.20;99.90;;;;;;5018624;28;20644;-91
2021/12/25 11:40:12;;;;;;;19.17;14.45;;;11.10;99.90;;;;;;5018558;28;20497;-92
2021/12/25 11:42:47;;;;;;;16.83;14.25;;;11.10;99.90;;;;;;5018975;28;20185;-89
2021/12/25 11:45:19;;;;;;;21.52;16.75;;;11.10;99.90;;;;;;5018238;28;20198;-93
2021/12/25 11:47:51;;;;;;;22.17;16.85;;;11.00;99.90;;;;;;5018514;28;20188;-92
2021/12/25 11:50:21;;;;;;;21.15;16.92;;;11.00;99.90;;;;;;5018849;28;20248;-92
2021/12/25 11:53:19;;;;;;;23.83;18.45;;;11.00;99.90;;;;;;5018360;28;20703;-88
2021/12/25 11:56:39;;;;;;;98.35;53.15;;;11.00;99.90;;;;;;5021284;28;20715;-90
2021/12/25 11:58:42;;;;;;;76.00;43.60;;;11.00;99.90;;;;;;5034591;28;20193;-92
2021/12/25 12:01:28;;;;;;;65.72;41.08;;;11.00;99.90;;;;;;5024654;28;20694;-89
2021/12/25 12:04:11;;;;;;;61.88;41.67;;;11.00;99.90;;;;;;5018307;28;20178;-91
2021/12/25 12:06:46;;;;;;;37.50;29.15;;;11.00;99.90;;;;;;5036453;28;20549;-91
2021/12/25 12:09:22;;;;;;;33.38;29.88;;;11.00;99.90;;;;;;5036841;28;20180;-90
2021/12/25 12:12:04;;;;;;;24.00;18.25;;;11.00;99.90;;;;;;5018649;28;20256;-88
2021/12/25 12:14:32;;;;;;;24.63;19.23;;;11.00;99.90;;;;;;5018132;28;20697;-89
2021/12/25 12:17:01;;;;;;;22.67;19.65;;;11.10;99.90;;;;;;5018257;28;20184;-92
2021/12/25 12:19:37;;;;;;;26.65;20.83;;;11.10;99.90;;;;;;5018234;28;20174;-88
2021/12/25 12:22:15;;;;;;;24.02;18.58;;;11.00;99.90;;;;;;5018120;28;20288;-89
2021/12/25 12:25:15;;;;;;;24.15;17.38;;;11.00;99.90;;;;;;5017962;28;20624;-91
2021/12/25 12:27:47;;;;;;;24.38;20.83;;;11.00;99.90;;;;;;5033924;28;20583;-89
2021/12/25 12:30:42;;;;;;;23.65;17.73;;;11.00;99.90;;;;;;5017664;28;20765;-89
2021/12/25 12:33:20;;;;;;;33.13;28.73;;;11.00;99.90;;;;;;5017851;28;20171;-92
2021/12/25 12:35:47;;;;;;;40.30;36.40;;;11.00;99.90;;;;;;5035328;28;20315;-89
2021/12/25 12:38:30;;;;;;;29.02;25.15;;;11.00;99.90;;;;;;5035183;28;20654;-89
2021/12/25 12:41:25;;;;;;;22.63;17.90;;;10.90;99.90;;;;;;5035960;28;20575;-92
2021/12/25 12:43:56;;;;;;;23.05;16.20;;;11.00;99.90;;;;;;5018780;28;20565;-89
2021/12/25 12:46:24;;;;;;;23.92;18.67;;;11.00;99.90;;;;;;5017815;28;20348;-88
2021/12/25 12:49:07;;;;;;;23.25;18.75;;;11.00;99.90;;;;;;5035289;28;20170;-92
2021/12/25 12:51:37;;;;;;;42.78;38.83;;;11.00;99.90;;;;;;5017464;28;20726;-89
2021/12/25 12:54:03;;;;;;;21.40;18.20;;;11.00;99.90;;;;;;5017112;28;20286;-89
2021/12/25 12:56:29;;;;;;;21.48;17.60;;;11.00;99.90;;;;;;5036072;28;20747;-92
2021/12/25 12:58:56;;;;;;;19.88;15.88;;;11.00;99.90;;;;;;5035368;28;20210;-91
2021/12/25 13:01:24;;;;;;;22.23;16.80;;;11.10;99.90;;;;;;5019183;28;20698;-92
2021/12/25 13:04:02;;;;;;;27.08;18.27;;;11.10;99.90;;;;;;5017541;28;20174;-89
2021/12/25 13:06:30;;;;;;;29.52;20.48;;;11.10;99.90;;;;;;5035022;28;20273;-89
2021/12/25 13:09:05;;;;;;;36.72;29.25;;;11.20;99.90;;;;;;5034504;28;20174;-92
2021/12/25 13:11:41;;;;;;;40.08;32.55;;;11.20;99.90;;;;;;5017144;28;20260;-92
2021/12/25 13:14:08;;;;;;;35.05;28.63;;;11.20;99.90;;;;;;5017245;28;20206;-92
2021/12/25 13:16:41;;;;;;;30.58;23.75;;;11.20;99.90;;;;;;5017259;28;20663;-92
2021/12/25 13:19:07;;;;;;;56.17;36.00;;;11.20;99.90;;;;;;5016778;28;20175;-92
2021/12/25 13:21:36;;;;;;;30.30;22.00;;;11.20;99.90;;;;;;5034358;28;20213;-92
2021/12/25 13:24:15;;;;;;;22.50;16.70;;;11.30;99.90;;;;;;5014756;28;20454;-91
2021/12/25 13:26:47;;;;;;;20.85;17.00;;;11.20;99.90;;;;;;4998003;28;20664;-89
2021/12/25 13:29:19;;;;;;;24.63;19.60;;;11.20;99.90;;;;;;5013451;28;20694;-92
2021/12/25 13:31:45;;;;;;;22.27;17.48;;;11.20;99.90;;;;;;4995834;28;20703;-89
2021/12/25 13:34:15;;;;;;;26.30;18.23;;;11.20;99.90;;;;;;5013264;28;20203;-89
2021/12/25 13:36:47;;;;;;;27.08;18.23;;;11.30;99.90;;;;;;4999335;28;20241;-92
2021/12/25 13:39:26;;;;;;;23.80;17.30;;;11.20;99.90;;;;;;5001291;28;20171;-89
2021/12/25 13:41:55;;;;;;;26.27;17.70;;;11.30;99.90;;;;;;5019103;28;20262;-88
2021/12/25 13:44:25;;;;;;;24.52;17.52;;;11.30;99.90;;;;;;5005559;28;20650;-89
2021/12/25 13:47:05;;;;;;;26.45;18.45;;;11.30;99.90;;;;;;5005184;28;20656;-92
2021/12/25 13:49:41;;;;;;;23.83;18.75;;;11.30;99.90;;;;;;5001721;28;20523;-92